createdAt,value
2022-08-21T00:01:36.515Z,2.97
2022-08-21T00:04:05.760Z,3.00
2022-08-21T00:06:32.294Z,2.97
2022-08-21T00:09:02.899Z,3.33
2022-08-21T00:11:32.592Z,4.33
2022-08-21T00:14:00.449Z,3.07
2022-08-21T00:16:26.992Z,2.60
2022-08-21T00:18:55.052Z,3.30
2022-08-21T00:21:21.691Z,3.13
2022-08-21T00:23:48.232Z,2.90
2022-08-21T00:26:14.759Z,3.20
2022-08-21T00:28:41.315Z,3.30
2022-08-21T00:31:07.971Z,3.53
2022-08-21T00:33:34.831Z,3.07
2022-08-21T00:36:03.492Z,2.80
2022-08-21T00:38:30.167Z,2.13
2022-08-21T00:41:00.327Z,2.93
2022-08-21T00:43:46.211Z,2.70
2022-08-21T00:46:13.184Z,2.80
2022-08-21T00:48:39.736Z,3.40
2022-08-21T00:51:11.282Z,3.13
2022-08-21T00:53:39.889Z,3.40
2022-08-21T00:56:08.967Z,3.17
2022-08-21T00:58:39.738Z,3.30
2022-08-21T01:01:09.052Z,3.03
2022-08-21T01:03:36.709Z,3.17
2022-08-21T01:06:04.210Z,2.87
2022-08-21T01:08:33.431Z,6.60
2022-08-21T01:11:01.396Z,2.60
2022-08-21T01:13:34.951Z,2.87
2022-08-21T01:16:05.748Z,2.60
2022-08-21T01:18:32.565Z,3.27
2022-08-21T01:21:07.236Z,3.60
2022-08-21T01:23:35.048Z,3.50
2022-08-21T01:26:01.605Z,3.40
2022-08-21T01:28:31.768Z,3.00
2022-08-21T01:30:58.985Z,2.67
2022-08-21T01:33:25.854Z,2.97
2022-08-21T01:35:52.415Z,2.93
2022-08-21T01:38:20.787Z,2.80
2022-08-21T01:40:47.362Z,3.13
2022-08-21T01:43:13.907Z,3.53
2022-08-21T01:45:40.435Z,3.70
2022-08-21T01:48:06.971Z,3.80
2022-08-21T01:50:33.639Z,3.83
2022-08-21T01:53:00.187Z,3.23
2022-08-21T01:55:28.375Z,3.93
2022-08-21T01:57:55.156Z,4.23
2022-08-21T02:00:23.892Z,3.23
2022-08-21T02:02:50.789Z,2.97
2022-08-21T02:05:17.514Z,4.00
2022-08-21T02:07:47.134Z,3.30
2022-08-21T02:10:17.177Z,3.50
2022-08-21T02:12:45.367Z,3.47
2022-08-21T02:15:11.959Z,3.30
2022-08-21T02:17:41.191Z,3.80
2022-08-21T02:20:09.084Z,3.97
2022-08-21T02:22:35.637Z,3.40
2022-08-21T02:25:02.362Z,3.33
2022-08-21T02:27:28.916Z,3.60
2022-08-21T02:29:58.122Z,3.83
2022-08-21T02:32:25.161Z,3.10
2022-08-21T02:34:51.785Z,3.13
2022-08-21T02:37:18.374Z,3.70
2022-08-21T02:39:44.995Z,3.50
2022-08-21T02:42:11.563Z,2.80
2022-08-21T02:44:38.110Z,2.73
2022-08-21T02:47:06.190Z,2.97
2022-08-21T02:49:32.751Z,2.90
2022-08-21T02:51:59.312Z,2.87
2022-08-21T02:54:25.953Z,3.00
2022-08-21T02:56:52.516Z,3.40
2022-08-21T02:59:19.104Z,3.03
2022-08-21T03:01:45.656Z,3.07
2022-08-21T03:04:13.577Z,2.80
2022-08-21T03:06:40.108Z,2.77
2022-08-21T03:09:06.798Z,3.13
2022-08-21T03:11:33.444Z,3.17
2022-08-21T03:13:59.987Z,3.03
2022-08-21T03:16:26.564Z,4.40
2022-08-21T03:18:53.117Z,3.90
2022-08-21T03:21:21.013Z,3.00
2022-08-21T03:23:47.560Z,3.30
2022-08-21T03:26:14.715Z,3.50
2022-08-21T03:28:42.788Z,3.40
2022-08-21T03:31:09.682Z,2.83
2022-08-21T03:33:36.267Z,3.40
2022-08-21T03:36:06.258Z,3.33
2022-08-21T03:38:35.740Z,3.33
2022-08-21T03:41:02.721Z,2.60
2022-08-21T03:43:30.894Z,3.33
2022-08-21T03:45:59.443Z,2.80
2022-08-21T03:48:25.998Z,3.10
2022-08-21T03:50:53.287Z,2.43
2022-08-21T03:53:19.863Z,2.53
2022-08-21T03:55:49.673Z,2.70
2022-08-21T03:58:18.219Z,2.40
2022-08-21T04:00:45.419Z,2.70
2022-08-21T04:03:12.004Z,3.17
2022-08-21T04:05:38.593Z,3.57
2022-08-21T04:08:06.484Z,2.57
2022-08-21T04:10:35.543Z,3.27
2022-08-21T04:13:04.169Z,2.80
2022-08-21T04:15:30.735Z,2.90
2022-08-21T04:17:57.313Z,3.00
2022-08-21T04:20:24.291Z,3.03
2022-08-21T04:22:51.484Z,4.17
2022-08-21T04:25:19.653Z,3.00
2022-08-21T04:27:46.229Z,2.97
2022-08-21T04:30:15.306Z,3.30
2022-08-21T04:32:43.779Z,3.80
2022-08-21T04:35:12.053Z,2.83
2022-08-21T04:37:42.048Z,3.13
2022-08-21T04:40:10.507Z,2.87
2022-08-21T04:42:44.145Z,2.80
2022-08-21T04:45:11.033Z,2.80
2022-08-21T04:47:52.035Z,2.83
2022-08-21T04:50:20.012Z,3.20
2022-08-21T04:52:47.464Z,3.50
2022-08-21T04:55:14.331Z,3.03
2022-08-21T04:57:48.597Z,3.03
2022-08-21T05:00:17.364Z,2.87
2022-08-21T05:02:45.679Z,2.90
2022-08-21T05:05:12.274Z,2.73
2022-08-21T05:07:42.311Z,2.80
2022-08-21T05:10:10.416Z,3.10
2022-08-21T05:12:39.318Z,3.03
2022-08-21T05:15:06.584Z,2.83
2022-08-21T05:17:35.615Z,3.47
2022-08-21T05:20:04.675Z,3.33
2022-08-21T05:22:31.301Z,2.87
2022-08-21T05:24:58.422Z,2.93
2022-08-21T05:27:24.994Z,2.87
2022-08-21T05:29:54.384Z,2.90
2022-08-21T05:32:20.930Z,2.97
2022-08-21T05:34:47.442Z,2.70
2022-08-21T05:37:15.496Z,3.20
2022-08-21T05:40:20.396Z,3.30
2022-08-21T05:42:28.588Z,3.73
2022-08-21T05:44:55.130Z,2.80
2022-08-21T05:47:21.670Z,3.20
2022-08-21T05:49:48.212Z,3.30
2022-08-21T05:52:19.966Z,4.20
2022-08-21T05:54:46.518Z,3.10
2022-08-21T05:57:13.079Z,3.30
2022-08-21T05:59:39.655Z,3.57
2022-08-21T06:02:06.823Z,3.63
2022-08-21T06:04:36.571Z,3.50
2022-08-21T06:07:03.270Z,2.83
2022-08-21T06:09:31.233Z,3.20
2022-08-21T06:11:57.755Z,3.40
2022-08-21T06:14:24.357Z,4.00
2022-08-21T06:16:50.934Z,3.53
2022-08-21T06:19:17.496Z,4.70
2022-08-21T06:21:44.032Z,3.30
2022-08-21T06:24:10.635Z,3.83
2022-08-21T06:26:38.600Z,3.60
2022-08-21T06:29:05.172Z,3.67
2022-08-21T06:31:31.689Z,5.47
2022-08-21T06:33:58.247Z,3.57
2022-08-21T06:36:24.816Z,4.43
2022-08-21T06:38:51.984Z,4.20
2022-08-21T06:41:18.923Z,3.70
2022-08-21T06:43:52.444Z,3.80
2022-08-21T06:46:19.150Z,3.60
2022-08-21T06:48:45.725Z,3.77
2022-08-21T06:51:12.378Z,3.90
2022-08-21T06:53:38.966Z,3.40
2022-08-21T06:56:06.120Z,3.57
2022-08-21T06:58:32.699Z,3.90
2022-08-21T07:01:01.445Z,3.90
2022-08-21T07:03:31.296Z,3.50
2022-08-21T07:05:58.075Z,4.20
2022-08-21T07:08:25.256Z,4.70
2022-08-21T07:10:53.254Z,3.70
2022-08-21T07:13:19.802Z,4.27
2022-08-21T07:15:46.554Z,3.80
2022-08-21T07:18:15.110Z,4.73
2022-08-21T07:20:41.838Z,3.93
2022-08-21T07:23:12.292Z,4.73
2022-08-21T07:25:39.115Z,4.60
2022-08-21T07:28:08.348Z,4.37
2022-08-21T07:30:34.897Z,4.50
2022-08-21T07:33:01.711Z,4.13
2022-08-21T07:35:29.766Z,4.43
2022-08-21T07:37:56.307Z,4.90
2022-08-21T07:40:23.037Z,4.23
2022-08-21T07:42:50.160Z,4.30
2022-08-21T07:45:17.287Z,3.90
2022-08-21T07:47:43.860Z,4.43
2022-08-21T07:50:10.880Z,4.80
2022-08-21T07:52:39.310Z,3.80
2022-08-21T07:55:07.072Z,4.03
2022-08-21T07:57:33.666Z,5.30
2022-08-21T08:00:00.408Z,3.80
2022-08-21T08:02:28.516Z,3.90
2022-08-21T08:04:55.295Z,3.80
2022-08-21T08:07:21.853Z,4.07
2022-08-21T08:09:49.737Z,4.53
2022-08-21T08:12:16.296Z,4.57
2022-08-21T08:14:42.856Z,3.53
2022-08-21T08:17:09.418Z,3.67
2022-08-21T08:19:35.979Z,3.50
2022-08-21T08:22:02.579Z,3.27
2022-08-21T08:24:29.090Z,3.93
2022-08-21T08:26:57.051Z,3.30
2022-08-21T08:29:23.669Z,2.90
2022-08-21T08:31:50.471Z,3.30
2022-08-21T08:34:23.335Z,3.60
2022-08-21T08:36:52.552Z,4.47
2022-08-21T08:39:27.059Z,3.37
2022-08-21T08:42:32.841Z,3.83
2022-08-21T08:44:59.463Z,3.33
2022-08-21T08:47:27.755Z,3.07
2022-08-21T08:49:59.555Z,4.57
2022-08-21T08:52:29.349Z,3.80
2022-08-21T08:55:03.419Z,3.90
2022-08-21T08:57:33.239Z,2.87
2022-08-21T09:00:05.562Z,3.10
2022-08-21T09:02:34.805Z,3.90
2022-08-21T09:05:01.652Z,2.63
2022-08-21T09:07:40.678Z,2.93
2022-08-21T09:10:17.386Z,3.40
2022-08-21T09:12:57.252Z,2.13
2022-08-21T09:15:30.821Z,3.60
2022-08-21T09:18:12.324Z,3.07
2022-08-21T09:20:45.693Z,2.47
2022-08-21T09:23:26.226Z,2.50
2022-08-21T09:26:12.194Z,2.73
2022-08-21T09:28:40.603Z,2.60
2022-08-21T09:31:09.614Z,3.93
2022-08-21T09:33:36.273Z,2.30
2022-08-21T09:36:03.363Z,2.20
2022-08-21T09:38:33.383Z,3.50
2022-08-21T09:41:03.879Z,3.30
2022-08-21T09:43:31.012Z,4.17
2022-08-21T09:46:12.497Z,3.57
2022-08-21T09:48:45.531Z,3.13
2022-08-21T09:51:16.143Z,3.40
2022-08-21T09:53:47.349Z,2.63
2022-08-21T09:56:26.347Z,3.33
2022-08-21T09:58:54.176Z,4.90
2022-08-21T10:01:24.012Z,3.20
2022-08-21T10:04:03.282Z,2.53
2022-08-21T10:06:30.059Z,3.37
2022-08-21T10:09:06.227Z,2.87
2022-08-21T10:11:33.736Z,3.73
2022-08-21T10:14:09.117Z,2.17
2022-08-21T10:16:48.321Z,3.17
2022-08-21T10:19:25.032Z,2.80
2022-08-21T10:22:01.717Z,3.77
2022-08-21T10:24:32.270Z,3.27
2022-08-21T10:27:08.744Z,2.03
2022-08-21T10:29:45.763Z,2.33
2022-08-21T10:32:26.204Z,3.67
2022-08-21T10:35:00.660Z,2.03
2022-08-21T10:37:36.528Z,2.27
2022-08-21T10:40:13.201Z,3.40
2022-08-21T10:43:01.860Z,2.43
2022-08-21T10:45:40.053Z,1.97
2022-08-21T10:48:14.323Z,2.77
2022-08-21T10:50:49.831Z,2.73
2022-08-21T10:53:44.965Z,2.20
2022-08-21T10:56:16.930Z,2.10
2022-08-21T10:58:50.355Z,2.70
2022-08-21T11:01:25.303Z,1.92
2022-08-21T11:04:02.259Z,1.83
2022-08-21T11:06:33.677Z,1.98
2022-08-21T11:09:14.262Z,3.70
2022-08-21T11:11:59.482Z,2.13
2022-08-21T11:14:49.840Z,3.45
2022-08-21T11:17:23.049Z,2.23
2022-08-21T11:19:54.668Z,2.37
2022-08-21T11:22:27.431Z,2.37
2022-08-21T11:25:09.647Z,1.77
2022-08-21T11:27:42.515Z,1.83
2022-08-21T11:30:10.272Z,2.40
2022-08-21T11:32:54.260Z,2.67
2022-08-21T11:35:30.327Z,2.00
2022-08-21T11:38:09.719Z,2.63
2022-08-21T11:40:47.150Z,2.50
2022-08-21T11:43:19.417Z,2.13
2022-08-21T11:45:49.850Z,2.47
2022-08-21T11:48:34.304Z,3.38
2022-08-21T11:51:08.135Z,2.38
2022-08-21T11:53:40.696Z,2.40
2022-08-21T11:56:12.016Z,2.25
2022-08-21T11:58:42.414Z,1.95
2022-08-21T12:01:13.615Z,2.42
2022-08-21T12:03:43.374Z,4.00
2022-08-21T12:06:13.725Z,2.45
2022-08-21T12:09:00.546Z,1.47
2022-08-21T12:11:30.826Z,2.30
2022-08-21T12:14:00.778Z,2.37
2022-08-21T12:16:32.362Z,2.50
2022-08-21T12:19:06.890Z,1.77
2022-08-21T12:21:49.824Z,1.80
2022-08-21T12:24:19.779Z,1.73
2022-08-21T12:26:51.554Z,2.73
2022-08-21T12:29:24.398Z,2.10
2022-08-21T12:31:56.107Z,2.53
2022-08-21T12:34:25.808Z,2.13
2022-08-21T12:36:59.729Z,2.00
2022-08-21T12:39:29.427Z,1.65
2022-08-21T12:42:02.241Z,1.60
2022-08-21T12:44:35.508Z,2.67
2022-08-21T12:47:06.125Z,3.47
2022-08-21T12:49:36.478Z,3.28
2022-08-21T12:52:12.234Z,1.83
2022-08-21T12:54:42.071Z,1.65
2022-08-21T12:57:10.712Z,2.00
2022-08-21T12:59:40.591Z,2.00
2022-08-21T13:02:18.043Z,2.03
2022-08-21T13:04:46.476Z,2.00
2022-08-21T13:07:17.147Z,1.70
2022-08-21T13:09:49.408Z,2.17
2022-08-21T13:12:16.752Z,1.83
2022-08-21T13:14:47.546Z,3.03
2022-08-21T13:17:25.937Z,2.13
2022-08-21T13:19:58.113Z,2.00
2022-08-21T13:22:34.642Z,2.10
2022-08-21T13:25:06.697Z,2.93
2022-08-21T13:27:34.729Z,2.20
2022-08-21T13:30:05.442Z,2.43
2022-08-21T13:32:35.619Z,1.90
2022-08-21T13:35:10.039Z,2.27
2022-08-21T13:37:40.037Z,1.80
2022-08-21T13:40:10.393Z,2.80
2022-08-21T13:42:40.193Z,2.40
2022-08-21T13:45:14.527Z,1.77
2022-08-21T13:47:41.521Z,1.70
2022-08-21T13:50:09.648Z,2.20
2022-08-21T13:52:50.561Z,2.37
2022-08-21T13:55:18.038Z,1.53
2022-08-21T13:57:44.680Z,1.47
2022-08-21T14:00:14.919Z,2.27
2022-08-21T14:02:44.200Z,1.67
2022-08-21T14:05:17.119Z,2.33
2022-08-21T14:07:44.858Z,1.73
2022-08-21T14:10:17.295Z,1.77
2022-08-21T14:12:47.354Z,1.97
2022-08-21T14:15:15.724Z,1.93
2022-08-21T14:17:42.554Z,1.73
2022-08-21T14:20:12.846Z,1.83
2022-08-21T14:22:41.542Z,1.57
2022-08-21T14:25:11.740Z,1.77
2022-08-21T14:27:44.079Z,2.83
2022-08-21T14:30:17.064Z,2.20
2022-08-21T14:32:45.942Z,1.80
2022-08-21T14:35:12.848Z,1.77
2022-08-21T14:37:42.979Z,1.77
2022-08-21T14:40:11.376Z,1.63
2022-08-21T14:42:42.730Z,2.43
2022-08-21T14:45:16.210Z,2.80
2022-08-21T14:47:43.286Z,2.87
2022-08-21T14:50:10.686Z,2.10
2022-08-21T14:52:37.596Z,1.53
2022-08-21T14:55:04.711Z,1.80
2022-08-21T14:57:32.295Z,1.50
2022-08-21T15:00:02.075Z,1.70
2022-08-21T15:02:29.015Z,2.17
2022-08-21T15:04:55.648Z,1.70
2022-08-21T15:07:22.304Z,1.63
2022-08-21T15:09:48.868Z,2.00
2022-08-21T15:12:15.568Z,1.90
2022-08-21T15:14:42.507Z,2.10
2022-08-21T15:17:11.328Z,1.63
2022-08-21T15:19:38.099Z,2.27
2022-08-21T15:22:05.290Z,1.93
2022-08-21T15:24:32.119Z,1.53
2022-08-21T15:27:01.126Z,1.60
2022-08-21T15:29:32.593Z,1.57
2022-08-21T15:32:02.199Z,1.93
2022-08-21T15:34:31.739Z,1.30
2022-08-21T15:36:59.721Z,1.40
2022-08-21T15:39:31.088Z,1.27
2022-08-21T15:41:58.825Z,1.87
2022-08-21T15:44:26.802Z,1.30
2022-08-21T15:46:53.489Z,1.97
2022-08-21T15:49:20.169Z,1.80
2022-08-21T15:51:48.241Z,2.20
2022-08-21T15:54:14.815Z,2.17
2022-08-21T15:56:46.265Z,2.10
2022-08-21T15:59:16.041Z,1.67
2022-08-21T16:01:44.399Z,2.80
2022-08-21T16:04:13.597Z,1.57
2022-08-21T16:06:55.177Z,2.23
2022-08-21T16:09:24.833Z,3.50
2022-08-21T16:11:51.875Z,1.27
2022-08-21T16:14:18.776Z,1.57
2022-08-21T16:16:45.810Z,1.67
2022-08-21T16:19:13.482Z,1.60
2022-08-21T16:21:40.124Z,2.00
2022-08-21T16:24:07.067Z,2.00
2022-08-21T16:26:35.095Z,2.60
2022-08-21T16:29:02.437Z,1.43
2022-08-21T16:31:30.664Z,2.53
2022-08-21T16:33:58.147Z,2.10
2022-08-21T16:36:25.385Z,1.60
2022-08-21T16:38:52.439Z,1.50
2022-08-21T16:41:19.324Z,2.17
2022-08-21T16:43:49.664Z,1.53
2022-08-21T16:46:16.671Z,1.87
2022-08-21T16:48:44.142Z,1.73
2022-08-21T16:51:11.344Z,2.30
2022-08-21T16:53:37.958Z,1.73
2022-08-21T16:56:05.403Z,1.90
2022-08-21T16:58:35.014Z,1.53
2022-08-21T17:01:05.439Z,3.77
2022-08-21T17:03:38.011Z,1.77
2022-08-21T17:06:05.085Z,3.27
2022-08-21T17:08:31.664Z,1.70
2022-08-21T17:10:58.591Z,1.80
2022-08-21T17:13:26.508Z,3.73
2022-08-21T17:15:53.866Z,1.73
2022-08-21T17:18:23.748Z,2.13
2022-08-21T17:20:50.890Z,1.40
2022-08-21T17:23:18.330Z,3.30
2022-08-21T17:25:47.725Z,1.90
2022-08-21T17:28:16.107Z,1.60
2022-08-21T17:30:43.968Z,1.23
2022-08-21T17:33:10.655Z,2.53
2022-08-21T17:35:38.502Z,1.63
2022-08-21T17:38:05.191Z,1.87
2022-08-21T17:40:31.770Z,1.60
2022-08-21T17:43:06.522Z,2.00
2022-08-21T17:45:33.405Z,1.40
2022-08-21T17:48:04.132Z,1.90
2022-08-21T17:50:30.707Z,2.30
2022-08-21T17:52:58.791Z,1.60
2022-08-21T17:55:25.485Z,1.43
2022-08-21T17:57:52.431Z,2.00
2022-08-21T18:00:21.840Z,2.03
2022-08-21T18:02:55.907Z,1.57
2022-08-21T18:05:22.582Z,1.63
2022-08-21T18:07:49.159Z,1.63
2022-08-21T18:10:17.058Z,2.43
2022-08-21T18:12:44.982Z,1.73
2022-08-21T18:15:13.818Z,1.30
2022-08-21T18:17:41.747Z,1.50
2022-08-21T18:20:09.318Z,1.70
2022-08-21T18:22:35.855Z,2.13
2022-08-21T18:25:02.661Z,1.83
2022-08-21T18:27:30.768Z,2.87
2022-08-21T18:29:59.091Z,3.43
2022-08-21T18:32:31.873Z,2.17
2022-08-21T18:34:59.877Z,1.50
2022-08-21T18:37:26.467Z,2.73
2022-08-21T18:39:53.192Z,1.57
2022-08-21T18:42:19.986Z,2.50
2022-08-21T18:44:59.040Z,1.97
2022-08-21T18:47:30.354Z,2.27
2022-08-21T18:49:56.889Z,1.97
2022-08-21T18:52:23.503Z,2.20
2022-08-21T18:54:55.216Z,2.17
2022-08-21T18:57:22.502Z,2.00
2022-08-21T18:59:49.091Z,1.80
2022-08-21T19:02:16.992Z,1.93
2022-08-21T19:04:44.998Z,2.03
2022-08-21T19:07:12.053Z,2.27
2022-08-21T19:09:38.632Z,2.20
2022-08-21T19:12:05.879Z,2.63
2022-08-21T19:14:32.590Z,1.87
2022-08-21T19:16:59.392Z,2.10
2022-08-21T19:19:27.411Z,1.70
2022-08-21T19:21:53.976Z,1.80
2022-08-21T19:24:23.234Z,2.17
2022-08-21T19:26:50.511Z,1.83
2022-08-21T19:29:34.649Z,2.60
2022-08-21T19:32:04.614Z,1.80
2022-08-21T19:34:33.376Z,1.87
2022-08-21T19:37:00.496Z,1.80
2022-08-21T19:39:27.065Z,1.90
2022-08-21T19:41:55.979Z,2.17
2022-08-21T19:44:25.284Z,1.90
2022-08-21T19:46:53.069Z,1.70
2022-08-21T19:49:22.190Z,1.63
2022-08-21T19:51:50.101Z,2.63
2022-08-21T19:54:19.362Z,1.90
2022-08-21T19:56:46.301Z,1.73
2022-08-21T19:59:16.269Z,2.13
2022-08-21T20:01:44.487Z,1.67
2022-08-21T20:04:19.164Z,1.60
2022-08-21T20:06:46.356Z,2.27
2022-08-21T20:09:16.212Z,4.43
2022-08-21T20:11:45.276Z,1.70
2022-08-21T20:14:13.574Z,2.73
2022-08-21T20:16:41.615Z,2.17
2022-08-21T20:19:08.887Z,1.63
2022-08-21T20:27:21.420Z,2.93
2022-08-21T20:29:48.576Z,3.33
2022-08-21T20:32:17.152Z,1.50
2022-08-21T20:34:45.093Z,2.23
2022-08-21T20:37:12.274Z,2.67
2022-08-21T20:39:41.035Z,2.93
2022-08-21T20:42:09.941Z,2.53
2022-08-21T20:44:37.837Z,1.70
2022-08-21T20:47:13.682Z,1.90
2022-08-21T20:49:44.648Z,1.43
2022-08-21T20:55:06.032Z,1.70
2022-08-21T20:57:42.068Z,2.30
2022-08-21T21:00:14.419Z,1.83
2022-08-21T21:02:48.212Z,2.33
2022-08-21T21:05:18.604Z,1.77
2022-08-21T21:07:55.372Z,1.60
2022-08-21T21:10:29.671Z,3.13
2022-08-21T21:13:02.819Z,1.90
2022-08-21T21:15:32.607Z,2.13
2022-08-21T21:18:06.399Z,1.87
2022-08-21T21:20:37.466Z,2.33
2022-08-21T21:23:14.546Z,1.63
2022-08-21T21:25:53.717Z,1.60
2022-08-21T21:28:26.119Z,2.20
2022-08-21T21:30:57.848Z,1.97
2022-08-21T21:33:24.952Z,2.63
2022-08-21T21:35:58.834Z,1.67
2022-08-21T21:38:35.393Z,1.80
2022-08-21T21:41:17.310Z,2.83
2022-08-21T21:43:59.606Z,1.97
2022-08-21T21:46:37.936Z,1.83
2022-08-21T21:49:33.028Z,1.37
2022-08-21T21:52:10.968Z,1.30
2022-08-21T21:54:53.598Z,1.43
2022-08-21T21:57:35.199Z,2.47
2022-08-21T22:00:06.480Z,1.77
2022-08-21T22:02:42.104Z,1.43
2022-08-21T22:05:18.090Z,1.83
2022-08-21T22:07:53.216Z,2.67
2022-08-21T22:10:30.570Z,2.00
2022-08-21T22:15:54.572Z,2.10
2022-08-21T22:18:28.479Z,2.17
2022-08-21T22:20:58.573Z,1.80
2022-08-21T22:23:29.985Z,1.70
2022-08-21T22:26:03.744Z,1.83
2022-08-21T22:28:35.300Z,3.63
2022-08-21T22:31:14.973Z,1.30
2022-08-21T22:34:01.163Z,1.60
2022-08-21T22:36:30.778Z,3.03
2022-08-21T22:38:57.537Z,1.90
2022-08-21T22:41:27.823Z,3.60
2022-08-21T22:43:59.828Z,1.60
2022-08-21T22:46:33.595Z,1.60
2022-08-21T22:49:05.189Z,1.37
2022-08-21T22:51:41.489Z,2.57
2022-08-21T22:54:16.836Z,2.33
2022-08-21T22:57:00.006Z,3.57
2022-08-21T22:59:30.028Z,2.30
2022-08-21T23:02:00.480Z,2.33
2022-08-21T23:04:27.691Z,2.70
2022-08-21T23:06:56.770Z,1.70
2022-08-21T23:09:33.520Z,2.67
2022-08-21T23:12:02.363Z,2.83
2022-08-21T23:14:55.053Z,2.10
2022-08-21T23:17:32.679Z,2.27
2022-08-21T23:20:04.554Z,2.93
2022-08-21T23:22:41.575Z,2.30
2022-08-21T23:25:23.748Z,2.30
2022-08-21T23:28:00.752Z,2.53
2022-08-21T23:30:42.612Z,2.40
2022-08-21T23:33:24.064Z,2.67
2022-08-21T23:36:03.035Z,2.37
2022-08-21T23:38:42.934Z,1.73
2022-08-21T23:41:33.877Z,1.90
2022-08-21T23:44:11.054Z,2.43
2022-08-21T23:46:54.409Z,2.20
2022-08-21T23:49:44.295Z,2.50
2022-08-21T23:52:21.630Z,1.97
2022-08-21T23:55:03.335Z,3.73
2022-08-21T23:57:49.526Z,3.07
